createdAt,value
2023-01-26T00:00:00.545Z,1.40
2023-01-26T00:02:29.036Z,1.17
2023-01-26T00:04:57.748Z,1.00
2023-01-26T00:07:26.225Z,1.00
2023-01-26T00:09:54.707Z,1.10
2023-01-26T00:12:24.791Z,1.40
2023-01-26T00:14:53.370Z,1.20
2023-01-26T00:17:28.454Z,1.20
2023-01-26T00:19:57.804Z,1.47
2023-01-26T00:22:27.117Z,1.50
2023-01-26T00:24:55.824Z,1.70
2023-01-26T00:27:25.866Z,1.73
2023-01-26T00:29:54.457Z,1.83
2023-01-26T00:32:23.006Z,1.80
2023-01-26T00:34:51.483Z,1.80
2023-01-26T00:37:21.283Z,1.93
2023-01-26T00:39:49.870Z,2.03
2023-01-26T00:42:18.379Z,2.07
2023-01-26T00:44:48.332Z,1.73
2023-01-26T00:47:19.029Z,2.47
2023-01-26T00:49:47.631Z,1.90
2023-01-26T00:52:16.157Z,2.10
2023-01-26T00:54:44.822Z,1.97
2023-01-26T00:57:13.356Z,2.07
2023-01-26T00:59:41.835Z,2.10
2023-01-26T01:02:11.843Z,2.00
2023-01-26T01:04:40.525Z,2.20
2023-01-26T01:07:08.991Z,1.83
2023-01-26T01:09:37.607Z,1.93
2023-01-26T01:12:06.337Z,2.00
2023-01-26T01:14:34.816Z,1.87
2023-01-26T01:17:03.472Z,2.07
2023-01-26T01:19:33.346Z,2.30
2023-01-26T01:22:01.814Z,2.20
2023-01-26T01:24:30.923Z,2.00
2023-01-26T01:26:59.386Z,1.80
2023-01-26T01:29:27.857Z,1.90
2023-01-26T01:31:56.641Z,2.10
2023-01-26T01:34:25.155Z,2.13
2023-01-26T01:36:55.025Z,2.10
2023-01-26T01:39:23.756Z,2.40
2023-01-26T01:41:52.226Z,2.23
2023-01-26T01:44:21.477Z,2.30
2023-01-26T01:46:52.993Z,2.23
2023-01-26T01:49:24.133Z,2.10
2023-01-26T01:51:54.858Z,2.30
2023-01-26T01:54:27.712Z,5.23
2023-01-26T01:56:58.574Z,2.07
2023-01-26T01:59:27.567Z,2.13
2023-01-26T02:01:57.810Z,1.90
2023-01-26T02:04:27.467Z,2.30
2023-01-26T02:06:57.958Z,2.07
2023-01-26T02:09:48.504Z,2.20
2023-01-26T02:12:19.542Z,2.23
2023-01-26T02:14:48.183Z,2.77
2023-01-26T02:17:16.761Z,2.60
2023-01-26T02:19:50.703Z,2.70
2023-01-26T02:22:23.809Z,2.60
2023-01-26T02:24:55.014Z,2.70
2023-01-26T02:27:25.067Z,2.37
2023-01-26T02:29:53.822Z,2.33
2023-01-26T02:32:22.307Z,2.30
2023-01-26T02:34:57.334Z,2.40
2023-01-26T02:37:25.847Z,2.60
2023-01-26T02:39:57.366Z,2.03
2023-01-26T02:42:50.437Z,2.33
2023-01-26T02:45:20.646Z,2.60
2023-01-26T02:47:49.317Z,2.13
2023-01-26T02:50:20.252Z,2.20
2023-01-26T02:52:48.747Z,2.03
2023-01-26T02:55:27.305Z,2.20
2023-01-26T02:57:57.906Z,2.00
2023-01-26T03:00:27.672Z,1.70
2023-01-26T03:02:57.461Z,1.83
2023-01-26T03:05:26.054Z,1.90
2023-01-26T03:07:54.540Z,1.47
2023-01-26T03:10:24.345Z,1.67
2023-01-26T03:12:53.290Z,1.80
2023-01-26T03:15:41.065Z,1.73
2023-01-26T03:18:28.179Z,1.40
2023-01-26T03:21:14.430Z,1.30
2023-01-26T03:24:00.624Z,1.17
2023-01-26T03:26:46.959Z,1.40
2023-01-26T03:29:15.440Z,1.60
2023-01-26T03:31:45.508Z,1.20
2023-01-26T03:34:14.082Z,1.03
2023-01-26T03:36:43.402Z,1.10
2023-01-26T03:39:32.081Z,1.00
2023-01-26T03:42:18.350Z,0.80
2023-01-26T03:45:04.901Z,0.77
2023-01-26T03:47:52.555Z,0.90
2023-01-26T03:50:38.655Z,0.73
2023-01-26T03:53:32.039Z,0.90
2023-01-26T03:56:24.644Z,0.90
2023-01-26T03:58:53.758Z,0.73
2023-01-26T04:01:26.505Z,1.03
2023-01-26T04:04:14.636Z,0.97
2023-01-26T04:07:02.069Z,0.80
2023-01-26T04:09:30.722Z,0.70
2023-01-26T04:11:59.260Z,0.80
2023-01-26T04:14:49.431Z,0.80
2023-01-26T04:17:37.012Z,0.60
2023-01-26T04:20:25.443Z,0.77
2023-01-26T04:22:54.131Z,0.80
2023-01-26T04:25:23.740Z,0.67
2023-01-26T04:27:52.369Z,0.50
2023-01-26T04:30:21.223Z,0.73
2023-01-26T04:32:49.941Z,0.70
2023-01-26T04:35:19.926Z,0.80
2023-01-26T04:37:49.556Z,0.70
2023-01-26T04:40:18.262Z,0.57
2023-01-26T04:42:46.847Z,0.63
2023-01-26T04:45:15.336Z,0.70
2023-01-26T04:47:43.915Z,0.60
2023-01-26T04:50:13.113Z,0.70
2023-01-26T04:52:43.249Z,0.63
2023-01-26T04:55:11.995Z,0.40
2023-01-26T04:57:40.611Z,0.80
2023-01-26T05:00:10.970Z,0.70
2023-01-26T05:02:40.428Z,0.40
2023-01-26T05:05:09.473Z,0.80
2023-01-26T05:07:37.970Z,0.70
2023-01-26T05:10:08.570Z,0.40
2023-01-26T05:12:38.475Z,0.60
2023-01-26T05:15:07.265Z,0.60
2023-01-26T05:17:36.918Z,0.60
2023-01-26T05:20:05.734Z,0.60
2023-01-26T05:22:34.211Z,0.47
2023-01-26T05:25:02.852Z,0.53
2023-01-26T05:27:35.294Z,0.60
2023-01-26T05:30:04.138Z,0.53
2023-01-26T05:32:32.870Z,0.40
2023-01-26T05:35:01.481Z,0.40
2023-01-26T05:37:30.555Z,0.40
2023-01-26T05:39:59.030Z,0.43
2023-01-26T05:42:28.050Z,0.50
2023-01-26T05:44:58.088Z,0.60
2023-01-26T05:47:26.884Z,0.60
2023-01-26T05:49:55.501Z,0.47
2023-01-26T05:52:24.299Z,0.50
2023-01-26T05:54:52.765Z,0.40
2023-01-26T05:57:21.477Z,0.50
2023-01-26T05:59:50.074Z,0.57
2023-01-26T06:02:19.941Z,0.60
2023-01-26T06:04:48.525Z,0.57
2023-01-26T06:07:17.442Z,0.40
2023-01-26T06:09:46.388Z,0.40
2023-01-26T06:12:16.430Z,0.33
2023-01-26T06:14:47.162Z,0.60
2023-01-26T06:17:17.108Z,0.30
2023-01-26T06:19:47.253Z,0.40
2023-01-26T06:22:16.117Z,0.40
2023-01-26T06:24:44.650Z,0.50
2023-01-26T06:27:14.841Z,0.40
2023-01-26T06:29:43.348Z,0.30
2023-01-26T06:32:12.339Z,0.40
2023-01-26T06:34:41.032Z,0.40
2023-01-26T06:37:10.946Z,0.50
2023-01-26T06:39:40.236Z,0.30
2023-01-26T06:42:09.871Z,0.20
2023-01-26T06:44:38.355Z,0.30
2023-01-26T06:47:07.766Z,0.23
2023-01-26T06:49:36.930Z,0.30
2023-01-26T06:52:06.578Z,0.30
2023-01-26T06:54:36.439Z,0.30
2023-01-26T06:57:05.139Z,0.30
2023-01-26T06:59:33.724Z,0.20
2023-01-26T07:02:02.218Z,0.23
2023-01-26T07:04:30.811Z,0.20
2023-01-26T07:06:59.448Z,0.30
2023-01-26T07:09:27.920Z,0.40
2023-01-26T07:11:57.872Z,0.20
2023-01-26T07:14:26.532Z,0.20
2023-01-26T07:16:55.003Z,0.20
2023-01-26T07:19:23.603Z,0.40
2023-01-26T07:21:52.175Z,0.33
2023-01-26T07:24:22.001Z,0.30
2023-01-26T07:26:50.702Z,0.40
2023-01-26T07:29:20.674Z,0.30
2023-01-26T07:31:49.467Z,0.30
2023-01-26T07:34:18.085Z,0.37
2023-01-26T07:36:46.672Z,0.20
2023-01-26T07:39:15.197Z,0.40
2023-01-26T07:41:43.771Z,0.30
2023-01-26T07:44:12.665Z,0.40
2023-01-26T07:46:44.691Z,0.43
2023-01-26T07:49:14.206Z,0.50
2023-01-26T07:51:42.743Z,0.37
2023-01-26T07:54:12.926Z,0.20
2023-01-26T07:56:41.801Z,0.50
2023-01-26T07:59:12.345Z,0.30
2023-01-26T08:01:42.274Z,0.13
2023-01-26T08:04:11.944Z,0.30
2023-01-26T08:06:40.667Z,0.40
2023-01-26T08:09:09.247Z,0.40
2023-01-26T08:11:37.959Z,0.23
2023-01-26T08:14:07.746Z,0.40
2023-01-26T08:16:36.311Z,0.30
2023-01-26T08:19:06.530Z,0.40
2023-01-26T08:21:35.186Z,0.20
2023-01-26T08:24:03.726Z,0.30
2023-01-26T08:26:32.462Z,0.30
2023-01-26T08:29:00.938Z,0.30
2023-01-26T08:31:29.447Z,0.20
2023-01-26T08:33:58.399Z,0.40
2023-01-26T08:36:28.665Z,0.10
2023-01-26T08:38:57.131Z,0.30
2023-01-26T08:41:25.767Z,0.20
2023-01-26T08:43:54.270Z,0.33
2023-01-26T08:46:22.739Z,0.20
2023-01-26T08:48:51.427Z,0.27
2023-01-26T08:51:19.957Z,0.30
2023-01-26T08:53:49.819Z,0.30
2023-01-26T08:56:18.647Z,0.70
2023-01-26T08:58:47.418Z,0.30
2023-01-26T09:01:16.773Z,0.20
2023-01-26T09:03:45.959Z,0.30
2023-01-26T09:06:15.983Z,0.50
2023-01-26T09:08:44.637Z,0.20
2023-01-26T09:11:14.751Z,0.30
2023-01-26T09:13:43.491Z,0.47
2023-01-26T09:16:15.008Z,0.23
2023-01-26T09:18:43.712Z,0.40
2023-01-26T09:21:12.535Z,0.50
2023-01-26T09:23:41.014Z,0.50
2023-01-26T09:26:09.700Z,0.33
2023-01-26T09:28:39.611Z,0.33
2023-01-26T09:31:08.744Z,0.40
2023-01-26T09:33:37.472Z,0.50
2023-01-26T09:36:06.807Z,0.33
2023-01-26T09:38:35.393Z,0.40
2023-01-26T09:41:07.346Z,0.10
2023-01-26T09:43:39.855Z,0.30
2023-01-26T09:46:17.182Z,0.47
2023-01-26T09:48:50.450Z,0.30
2023-01-26T09:51:23.480Z,0.20
2023-01-26T09:53:55.708Z,0.40
2023-01-26T09:56:28.538Z,0.40
2023-01-26T09:58:59.892Z,0.27
2023-01-26T10:01:33.713Z,0.20
2023-01-26T10:04:04.313Z,0.43
2023-01-26T10:06:33.134Z,0.20
2023-01-26T10:09:03.003Z,0.27
2023-01-26T10:11:35.289Z,0.20
2023-01-26T10:14:06.674Z,0.20
2023-01-26T10:16:36.584Z,0.20
2023-01-26T10:19:06.670Z,0.20
2023-01-26T10:21:35.931Z,0.10
2023-01-26T10:24:05.797Z,0.20
2023-01-26T10:26:35.170Z,0.20
2023-01-26T10:29:03.838Z,0.30
2023-01-26T10:31:33.568Z,0.40
2023-01-26T10:34:10.835Z,0.30
2023-01-26T10:36:39.488Z,0.57
2023-01-26T10:39:08.449Z,0.57
2023-01-26T10:41:37.064Z,0.27
2023-01-26T10:44:06.406Z,0.30
2023-01-26T10:46:36.121Z,0.30
2023-01-26T10:49:16.733Z,0.20
2023-01-26T10:51:46.404Z,0.20
2023-01-26T10:54:22.452Z,0.30
2023-01-26T10:56:52.549Z,0.30
2023-01-26T10:59:26.404Z,0.30
2023-01-26T11:01:56.154Z,0.20
2023-01-26T11:04:26.607Z,0.30
2023-01-26T11:06:56.170Z,0.20
2023-01-26T11:09:27.707Z,0.50
2023-01-26T11:12:03.754Z,0.30
2023-01-26T11:14:33.282Z,0.20
2023-01-26T11:17:03.265Z,0.20
2023-01-26T11:19:53.948Z,0.13
2023-01-26T11:22:29.838Z,0.40
2023-01-26T11:25:02.787Z,0.17
2023-01-26T11:27:36.033Z,0.20
2023-01-26T11:30:11.871Z,0.20
2023-01-26T11:32:42.998Z,0.20
2023-01-26T11:35:16.060Z,0.17
2023-01-26T11:37:53.038Z,0.33
2023-01-26T11:40:34.011Z,0.20
2023-01-26T11:43:17.296Z,0.40
2023-01-26T11:45:57.097Z,0.17
2023-01-26T11:48:29.872Z,0.20
2023-01-26T11:51:00.111Z,0.10
2023-01-26T11:53:39.607Z,0.10
2023-01-26T11:56:23.359Z,0.40
2023-01-26T11:58:55.688Z,0.30
2023-01-26T12:01:29.169Z,0.20
2023-01-26T12:03:58.214Z,0.30
2023-01-26T12:06:30.878Z,0.20
2023-01-26T12:09:04.054Z,0.30
2023-01-26T12:11:35.879Z,0.10
2023-01-26T12:14:08.295Z,0.17
2023-01-26T12:16:49.002Z,0.20
2023-01-26T12:19:24.518Z,0.10
2023-01-26T12:21:55.573Z,0.27
2023-01-26T12:27:19.929Z,0.30
2023-01-26T12:29:51.539Z,0.13
2023-01-26T12:32:20.315Z,0.37
2023-01-26T12:34:49.820Z,0.20
2023-01-26T12:37:27.630Z,0.40
2023-01-26T12:40:02.332Z,0.20
2023-01-26T12:42:39.421Z,0.00
2023-01-26T12:45:09.831Z,0.40
2023-01-26T12:47:40.902Z,0.20
2023-01-26T12:50:14.079Z,0.20
2023-01-26T12:52:44.938Z,0.30
2023-01-26T12:55:18.082Z,0.30
2023-01-26T12:57:48.426Z,0.20
2023-01-26T13:00:21.454Z,0.20
2023-01-26T13:02:51.585Z,0.37
2023-01-26T13:05:27.222Z,0.20
2023-01-26T13:07:55.826Z,0.50
2023-01-26T13:10:27.230Z,0.20
2023-01-26T13:12:57.329Z,0.30
2023-01-26T13:15:26.857Z,0.20
2023-01-26T13:17:56.884Z,0.23
2023-01-26T13:20:30.147Z,0.30
2023-01-26T13:22:58.732Z,0.37
2023-01-26T13:25:32.825Z,0.10
2023-01-26T13:28:01.916Z,0.40
2023-01-26T13:30:51.511Z,0.20
2023-01-26T13:33:23.226Z,0.30
2023-01-26T13:35:52.492Z,0.50
2023-01-26T13:38:24.565Z,0.30
2023-01-26T13:40:55.165Z,0.20
2023-01-26T13:43:28.979Z,0.20
2023-01-26T13:46:21.550Z,0.20
2023-01-26T13:48:50.667Z,0.20
2023-01-26T13:51:20.632Z,0.40
2023-01-26T13:53:51.019Z,0.40
2023-01-26T13:56:24.396Z,0.30
2023-01-26T13:58:53.334Z,0.30
2023-01-26T14:01:22.630Z,0.40
2023-01-26T14:04:03.951Z,0.40
2023-01-26T14:06:33.692Z,0.60
2023-01-26T14:09:02.196Z,0.40
2023-01-26T14:11:34.353Z,0.30
2023-01-26T14:14:04.070Z,0.30
2023-01-26T14:16:33.366Z,0.23
2023-01-26T14:19:08.381Z,0.10
2023-01-26T14:21:47.813Z,0.37
2023-01-26T14:24:16.538Z,0.30
2023-01-26T14:26:46.552Z,0.40
2023-01-26T14:29:20.334Z,0.40
2023-01-26T14:31:49.601Z,0.20
2023-01-26T14:34:21.352Z,0.20
2023-01-26T14:36:49.980Z,0.30
2023-01-26T14:39:19.577Z,0.30
2023-01-26T14:41:50.320Z,0.10
2023-01-26T14:44:18.800Z,0.37
2023-01-26T14:46:59.029Z,0.30
2023-01-26T14:49:31.926Z,0.20
2023-01-26T14:52:00.687Z,0.40
2023-01-26T14:54:31.190Z,0.37
2023-01-26T14:57:01.686Z,0.40
2023-01-26T14:59:35.542Z,0.57
2023-01-26T15:02:06.248Z,0.33
2023-01-26T15:04:38.457Z,0.33
2023-01-26T15:07:25.570Z,0.47
2023-01-26T15:09:54.553Z,0.50
2023-01-26T15:12:24.499Z,0.30
2023-01-26T15:14:57.489Z,0.40
2023-01-26T15:17:30.323Z,0.53
2023-01-26T15:19:59.044Z,0.40
2023-01-26T15:22:28.231Z,0.70
2023-01-26T15:25:17.316Z,1.00
2023-01-26T15:27:51.174Z,0.20
2023-01-26T15:30:21.753Z,0.50
2023-01-26T15:32:50.342Z,0.47
2023-01-26T15:35:23.848Z,0.20
2023-01-26T15:38:01.353Z,0.20
2023-01-26T15:40:30.449Z,0.30
2023-01-26T15:43:13.773Z,0.30
2023-01-26T15:45:44.735Z,0.20
2023-01-26T15:48:13.328Z,0.40
2023-01-26T15:50:44.122Z,0.37
2023-01-26T15:53:14.992Z,0.00
2023-01-26T15:55:44.242Z,0.23
2023-01-26T15:58:12.883Z,1.13
2023-01-26T16:00:41.606Z,0.50
2023-01-26T16:03:13.889Z,0.30
2023-01-26T16:05:42.602Z,0.40
2023-01-26T16:08:11.135Z,0.20
2023-01-26T16:10:39.902Z,0.33
2023-01-26T16:13:11.182Z,0.33
2023-01-26T16:15:41.404Z,0.20
2023-01-26T16:18:10.243Z,0.40
2023-01-26T16:20:41.092Z,0.50
2023-01-26T16:23:17.227Z,0.37
2023-01-26T16:25:45.966Z,0.70
2023-01-26T16:28:14.446Z,0.30
2023-01-26T16:30:43.995Z,0.20
2023-01-26T16:33:13.835Z,0.33
2023-01-26T16:35:46.282Z,0.60
2023-01-26T16:38:15.061Z,0.20
2023-01-26T16:40:44.902Z,0.33
2023-01-26T16:43:16.283Z,0.60
2023-01-26T16:45:44.849Z,0.40
2023-01-26T16:48:14.699Z,0.50
2023-01-26T16:50:45.411Z,0.80
2023-01-26T16:53:18.612Z,0.60
2023-01-26T16:55:47.219Z,0.47
2023-01-26T16:58:15.795Z,0.20
2023-01-26T17:00:44.425Z,0.47
2023-01-26T17:03:14.063Z,0.47
2023-01-26T17:05:44.090Z,0.60
2023-01-26T17:08:12.589Z,0.50
2023-01-26T17:10:55.472Z,0.57
2023-01-26T17:13:29.490Z,0.50
2023-01-26T17:15:58.491Z,0.50
2023-01-26T17:18:27.271Z,0.40
2023-01-26T17:21:03.113Z,0.30
2023-01-26T17:23:32.431Z,0.50
2023-01-26T17:26:00.965Z,0.50
2023-01-26T17:28:29.808Z,0.63
2023-01-26T17:31:01.024Z,4.50
2023-01-26T17:33:30.467Z,1.13
2023-01-26T17:36:04.052Z,1.00
2023-01-26T17:38:32.720Z,0.80
2023-01-26T17:41:01.278Z,0.50
2023-01-26T17:43:30.210Z,0.50
2023-01-26T17:46:05.595Z,0.70
2023-01-26T17:48:34.457Z,0.83
2023-01-26T17:51:06.442Z,0.33
2023-01-26T17:53:35.297Z,0.43
2023-01-26T17:56:04.270Z,0.87
2023-01-26T17:58:32.829Z,0.53
2023-01-26T18:01:01.373Z,0.80
2023-01-26T18:03:30.028Z,0.50
2023-01-26T18:05:59.179Z,0.57
2023-01-26T18:08:29.249Z,0.30
2023-01-26T18:11:01.509Z,0.27
2023-01-26T18:13:30.682Z,0.37
2023-01-26T18:15:59.416Z,0.50
2023-01-26T18:18:29.582Z,0.40
2023-01-26T18:20:58.159Z,0.67
2023-01-26T18:23:27.083Z,0.30
2023-01-26T18:25:57.799Z,0.60
2023-01-26T18:28:26.267Z,0.70
2023-01-26T18:30:55.785Z,0.40
2023-01-26T18:33:24.659Z,0.40
2023-01-26T18:35:53.126Z,0.40
2023-01-26T18:38:21.593Z,0.40
2023-01-26T18:40:50.310Z,0.40
2023-01-26T18:43:20.199Z,0.43
2023-01-26T18:45:48.702Z,0.57
2023-01-26T18:48:17.425Z,0.43
2023-01-26T18:50:50.450Z,0.30
2023-01-26T18:53:19.045Z,0.60
2023-01-26T18:55:47.827Z,0.30
2023-01-26T18:58:16.316Z,0.23
2023-01-26T19:00:47.835Z,0.40
2023-01-26T19:03:17.538Z,0.37
2023-01-26T19:05:46.778Z,0.30
2023-01-26T19:08:15.663Z,0.30
2023-01-26T19:10:44.257Z,0.20
2023-01-26T19:13:13.207Z,0.40
2023-01-26T19:15:41.783Z,0.40
2023-01-26T19:18:12.072Z,0.70
2023-01-26T19:20:40.566Z,0.43
2023-01-26T19:23:09.449Z,0.50
2023-01-26T19:25:38.640Z,0.40
2023-01-26T19:28:07.516Z,0.10
2023-01-26T19:30:36.134Z,0.40
2023-01-26T19:33:22.061Z,0.27
2023-01-26T19:35:52.172Z,0.40
2023-01-26T19:38:20.762Z,0.40
2023-01-26T19:40:50.351Z,0.40
2023-01-26T19:43:20.302Z,0.30
2023-01-26T19:45:49.661Z,0.23
2023-01-26T19:48:18.154Z,0.37
2023-01-26T19:50:46.738Z,0.27
2023-01-26T19:53:16.706Z,0.20
2023-01-26T19:55:47.358Z,0.10
2023-01-26T19:58:16.660Z,0.37
2023-01-26T20:00:45.186Z,0.37
2023-01-26T20:03:13.844Z,0.40
2023-01-26T20:05:42.505Z,0.33
2023-01-26T20:08:10.985Z,0.60
2023-01-26T20:10:40.960Z,0.40
2023-01-26T20:13:09.535Z,0.40
2023-01-26T20:15:38.032Z,0.40
2023-01-26T20:18:07.507Z,0.40
2023-01-26T20:20:36.108Z,0.33
2023-01-26T20:23:07.624Z,0.30
2023-01-26T20:25:38.430Z,0.20
2023-01-26T20:28:08.402Z,0.30
2023-01-26T20:30:37.084Z,0.40
2023-01-26T20:33:05.706Z,0.20
2023-01-26T20:35:34.691Z,0.20
2023-01-26T20:38:03.537Z,0.33
2023-01-26T20:40:32.010Z,0.27
2023-01-26T20:43:00.571Z,0.20
2023-01-26T20:45:30.800Z,0.10
2023-01-26T20:47:59.310Z,0.27
2023-01-26T20:50:27.874Z,0.30
2023-01-26T20:52:56.475Z,0.20
2023-01-26T20:55:24.938Z,0.30
2023-01-26T20:57:53.649Z,0.30
2023-01-26T21:00:22.979Z,0.20
2023-01-26T21:02:52.865Z,0.13
2023-01-26T21:05:21.514Z,0.30
2023-01-26T21:07:50.119Z,0.17
2023-01-26T21:10:18.621Z,0.30
2023-01-26T21:12:47.153Z,0.30
2023-01-26T21:15:15.776Z,0.40
2023-01-26T21:17:44.268Z,0.40
2023-01-26T21:20:15.856Z,0.30
2023-01-26T21:22:44.447Z,0.27
2023-01-26T21:25:14.149Z,0.57
2023-01-26T21:27:42.629Z,0.30
2023-01-26T21:30:12.224Z,0.40
2023-01-26T21:32:40.970Z,0.20
2023-01-26T21:35:09.798Z,0.40
2023-01-26T21:37:39.763Z,0.50
2023-01-26T21:40:09.213Z,0.50
2023-01-26T21:42:37.767Z,0.60
2023-01-26T21:45:24.247Z,0.40
2023-01-26T21:48:06.742Z,0.60
2023-01-26T21:50:49.163Z,0.53
2023-01-26T21:53:19.142Z,0.57
2023-01-26T21:55:48.245Z,0.67
2023-01-26T21:58:45.908Z,0.60
2023-01-26T22:01:14.473Z,0.77
2023-01-26T22:03:42.985Z,0.30
2023-01-26T22:06:11.558Z,0.10
2023-01-26T22:08:41.538Z,0.50
2023-01-26T22:11:10.078Z,0.70
2023-01-26T22:13:38.751Z,0.80
2023-01-26T22:16:09.131Z,0.30
2023-01-26T22:18:37.707Z,1.03
2023-01-26T22:21:06.637Z,0.80
2023-01-26T22:23:35.982Z,0.83
2023-01-26T22:26:07.666Z,0.90
2023-01-26T22:28:36.170Z,0.50
2023-01-26T22:31:06.720Z,0.50
2023-01-26T22:33:35.945Z,0.43
2023-01-26T22:36:05.867Z,0.30
2023-01-26T22:38:34.711Z,0.20
2023-01-26T22:41:03.785Z,0.60
2023-01-26T22:43:33.941Z,0.50
2023-01-26T22:46:06.072Z,1.40
2023-01-26T22:48:34.946Z,0.67
2023-01-26T22:51:08.146Z,0.80
2023-01-26T22:53:36.731Z,1.00
2023-01-26T22:56:05.802Z,0.60
2023-01-26T22:58:47.688Z,0.80
2023-01-26T23:01:24.284Z,0.60
2023-01-26T23:03:53.497Z,0.50
2023-01-26T23:06:22.261Z,0.67
2023-01-26T23:08:50.742Z,0.60
2023-01-26T23:11:22.415Z,0.50
2023-01-26T23:13:53.315Z,0.53
2023-01-26T23:16:23.777Z,0.40
2023-01-26T23:18:53.084Z,0.60
2023-01-26T23:21:21.595Z,0.60
2023-01-26T23:23:50.460Z,0.87
2023-01-26T23:26:19.074Z,0.80
2023-01-26T23:28:47.565Z,0.60
2023-01-26T23:31:18.411Z,0.60
2023-01-26T23:33:47.334Z,0.57
2023-01-26T23:36:16.345Z,0.63
2023-01-26T23:38:45.896Z,0.50
2023-01-26T23:41:14.870Z,0.60
2023-01-26T23:43:45.573Z,0.70
2023-01-26T23:46:14.465Z,0.53
2023-01-26T23:48:44.532Z,0.70
2023-01-26T23:51:13.783Z,0.70
2023-01-26T23:53:42.654Z,0.60
2023-01-26T23:56:12.105Z,0.47
2023-01-26T23:58:40.641Z,0.53
